sensor_id;sensor_type;location;lat;lon;timestamp;temperature;humidity
27671;DHT22;15077;49.704;9.908;2022-11-02T00:01:12;13.50;64.50
27671;DHT22;15077;49.704;9.908;2022-11-02T00:03:39;13.50;64.60
27671;DHT22;15077;49.704;9.908;2022-11-02T00:06:05;13.50;64.60
27671;DHT22;15077;49.704;9.908;2022-11-02T00:08:30;13.50;64.70
27671;DHT22;15077;49.704;9.908;2022-11-02T00:10:56;13.40;64.60
27671;DHT22;15077;49.704;9.908;2022-11-02T00:13:21;13.40;64.70
27671;DHT22;15077;49.704;9.908;2022-11-02T00:15:47;13.40;64.70
27671;DHT22;15077;49.704;9.908;2022-11-02T00:18:13;13.50;64.80
27671;DHT22;15077;49.704;9.908;2022-11-02T00:20:40;13.40;64.80
27671;DHT22;15077;49.704;9.908;2022-11-02T00:23:07;13.40;64.90
27671;DHT22;15077;49.704;9.908;2022-11-02T00:25:40;13.40;65.00
27671;DHT22;15077;49.704;9.908;2022-11-02T00:28:08;13.30;64.90
27671;DHT22;15077;49.704;9.908;2022-11-02T00:30:33;13.30;65.00
27671;DHT22;15077;49.704;9.908;2022-11-02T00:32:59;13.30;65.10
27671;DHT22;15077;49.704;9.908;2022-11-02T00:35:25;13.30;65.10
27671;DHT22;15077;49.704;9.908;2022-11-02T00:37:52;13.30;65.10
27671;DHT22;15077;49.704;9.908;2022-11-02T00:40:18;13.20;65.20
27671;DHT22;15077;49.704;9.908;2022-11-02T00:42:44;13.20;65.20
27671;DHT22;15077;49.704;9.908;2022-11-02T00:45:09;13.20;65.20
27671;DHT22;15077;49.704;9.908;2022-11-02T00:47:35;13.20;65.30
27671;DHT22;15077;49.704;9.908;2022-11-02T00:50:01;13.20;65.30
27671;DHT22;15077;49.704;9.908;2022-11-02T00:52:28;13.20;65.30
27671;DHT22;15077;49.704;9.908;2022-11-02T00:54:53;13.20;65.40
27671;DHT22;15077;49.704;9.908;2022-11-02T00:57:19;13.20;65.40
27671;DHT22;15077;49.704;9.908;2022-11-02T00:59:44;13.20;65.40
27671;DHT22;15077;49.704;9.908;2022-11-02T01:02:10;13.20;65.40
27671;DHT22;15077;49.704;9.908;2022-11-02T01:04:36;13.20;65.40
27671;DHT22;15077;49.704;9.908;2022-11-02T01:07:02;13.20;65.50
27671;DHT22;15077;49.704;9.908;2022-11-02T01:09:28;13.20;65.40
27671;DHT22;15077;49.704;9.908;2022-11-02T01:11:54;13.20;65.40
27671;DHT22;15077;49.704;9.908;2022-11-02T01:14:20;13.20;65.40
27671;DHT22;15077;49.704;9.908;2022-11-02T01:16:46;13.20;65.40
27671;DHT22;15077;49.704;9.908;2022-11-02T01:19:11;13.20;65.40
27671;DHT22;15077;49.704;9.908;2022-11-02T01:21:37;13.20;65.40
27671;DHT22;15077;49.704;9.908;2022-11-02T01:24:03;13.20;65.40
27671;DHT22;15077;49.704;9.908;2022-11-02T01:26:29;13.20;65.40
27671;DHT22;15077;49.704;9.908;2022-11-02T01:28:54;13.20;65.40
27671;DHT22;15077;49.704;9.908;2022-11-02T01:31:20;13.10;65.30
27671;DHT22;15077;49.704;9.908;2022-11-02T01:33:46;13.10;65.40
27671;DHT22;15077;49.704;9.908;2022-11-02T01:36:12;13.10;65.40
27671;DHT22;15077;49.704;9.908;2022-11-02T01:38:39;13.10;65.50
27671;DHT22;15077;49.704;9.908;2022-11-02T01:41:05;13.10;65.50
27671;DHT22;15077;49.704;9.908;2022-11-02T01:43:32;13.00;65.80
27671;DHT22;15077;49.704;9.908;2022-11-02T01:48:38;13.00;65.90
27671;DHT22;15077;49.704;9.908;2022-11-02T01:51:13;13.00;66.00
27671;DHT22;15077;49.704;9.908;2022-11-02T01:53:43;12.90;66.00
27671;DHT22;15077;49.704;9.908;2022-11-02T01:56:14;12.90;66.00
27671;DHT22;15077;49.704;9.908;2022-11-02T01:58:45;12.90;66.10
27671;DHT22;15077;49.704;9.908;2022-11-02T02:01:13;12.90;66.10
27671;DHT22;15077;49.704;9.908;2022-11-02T02:03:39;12.80;66.20
27671;DHT22;15077;49.704;9.908;2022-11-02T02:06:10;12.80;66.50
27671;DHT22;15077;49.704;9.908;2022-11-02T02:08:39;12.80;66.40
27671;DHT22;15077;49.704;9.908;2022-11-02T02:13:54;12.70;66.50
27671;DHT22;15077;49.704;9.908;2022-11-02T02:16:25;12.70;66.60
27671;DHT22;15077;49.704;9.908;2022-11-02T02:19:05;12.70;67.00
27671;DHT22;15077;49.704;9.908;2022-11-02T02:21:42;12.70;67.00
27671;DHT22;15077;49.704;9.908;2022-11-02T02:24:48;12.70;67.10
27671;DHT22;15077;49.704;9.908;2022-11-02T02:27:22;12.60;67.10
27671;DHT22;15077;49.704;9.908;2022-11-02T02:30:02;12.60;67.50
27671;DHT22;15077;49.704;9.908;2022-11-02T02:35:34;12.60;67.30
27671;DHT22;15077;49.704;9.908;2022-11-02T02:38:03;12.60;68.10
27671;DHT22;15077;49.704;9.908;2022-11-02T02:40:56;12.60;67.40
27671;DHT22;15077;49.704;9.908;2022-11-02T02:43:25;12.60;67.40
27671;DHT22;15077;49.704;9.908;2022-11-02T02:46:22;12.70;67.40
27671;DHT22;15077;49.704;9.908;2022-11-02T02:48:54;12.70;67.40
27671;DHT22;15077;49.704;9.908;2022-11-02T02:51:25;12.70;67.40
27671;DHT22;15077;49.704;9.908;2022-11-02T02:53:58;12.70;67.40
27671;DHT22;15077;49.704;9.908;2022-11-02T02:56:27;12.70;67.40
27671;DHT22;15077;49.704;9.908;2022-11-02T02:58:59;12.70;67.40
27671;DHT22;15077;49.704;9.908;2022-11-02T03:01:28;12.80;67.40
27671;DHT22;15077;49.704;9.908;2022-11-02T03:03:55;12.80;67.40
27671;DHT22;15077;49.704;9.908;2022-11-02T03:06:28;12.80;67.40
27671;DHT22;15077;49.704;9.908;2022-11-02T03:17:24;12.80;67.70
27671;DHT22;15077;49.704;9.908;2022-11-02T03:20:02;12.80;67.60
27671;DHT22;15077;49.704;9.908;2022-11-02T03:25:42;12.80;67.60
27671;DHT22;15077;49.704;9.908;2022-11-02T03:28:18;12.80;67.60
27671;DHT22;15077;49.704;9.908;2022-11-02T03:30:52;12.80;67.50
27671;DHT22;15077;49.704;9.908;2022-11-02T03:33:31;12.80;67.60
27671;DHT22;15077;49.704;9.908;2022-11-02T03:36:07;12.80;67.70
27671;DHT22;15077;49.704;9.908;2022-11-02T03:41:20;12.80;67.80
27671;DHT22;15077;49.704;9.908;2022-11-02T03:43:49;12.80;67.90
27671;DHT22;15077;49.704;9.908;2022-11-02T03:46:19;12.80;67.80
27671;DHT22;15077;49.704;9.908;2022-11-02T03:48:47;12.80;68.00
27671;DHT22;15077;49.704;9.908;2022-11-02T03:51:16;12.90;68.10
27671;DHT22;15077;49.704;9.908;2022-11-02T03:53:53;12.90;68.30
27671;DHT22;15077;49.704;9.908;2022-11-02T03:59:10;12.90;68.10
27671;DHT22;15077;49.704;9.908;2022-11-02T04:01:47;12.90;68.00
27671;DHT22;15077;49.704;9.908;2022-11-02T04:04:15;12.90;68.20
27671;DHT22;15077;49.704;9.908;2022-11-02T04:06:41;12.90;68.10
27671;DHT22;15077;49.704;9.908;2022-11-02T04:09:08;12.90;68.20
27671;DHT22;15077;49.704;9.908;2022-11-02T04:11:35;12.90;68.20
27671;DHT22;15077;49.704;9.908;2022-11-02T04:14:20;12.90;68.10
27671;DHT22;15077;49.704;9.908;2022-11-02T04:17:08;12.90;68.10
27671;DHT22;15077;49.704;9.908;2022-11-02T04:19:54;12.90;68.00
27671;DHT22;15077;49.704;9.908;2022-11-02T04:22:20;12.90;68.10
27671;DHT22;15077;49.704;9.908;2022-11-02T04:25:06;12.90;68.10
27671;DHT22;15077;49.704;9.908;2022-11-02T04:27:45;12.80;67.90
27671;DHT22;15077;49.704;9.908;2022-11-02T04:30:13;12.80;67.90
27671;DHT22;15077;49.704;9.908;2022-11-02T04:32:41;12.80;68.00
27671;DHT22;15077;49.704;9.908;2022-11-02T04:35:27;12.80;68.00
27671;DHT22;15077;49.704;9.908;2022-11-02T04:37:53;12.80;68.00
27671;DHT22;15077;49.704;9.908;2022-11-02T04:40:37;12.80;68.00
27671;DHT22;15077;49.704;9.908;2022-11-02T04:43:03;12.80;68.00
27671;DHT22;15077;49.704;9.908;2022-11-02T04:45:29;12.80;67.80
27671;DHT22;15077;49.704;9.908;2022-11-02T04:47:58;12.80;67.80
27671;DHT22;15077;49.704;9.908;2022-11-02T04:50:28;12.80;67.80
27671;DHT22;15077;49.704;9.908;2022-11-02T04:52:58;12.80;67.60
27671;DHT22;15077;49.704;9.908;2022-11-02T04:55:25;12.80;67.60
27671;DHT22;15077;49.704;9.908;2022-11-02T04:57:51;12.90;67.60
27671;DHT22;15077;49.704;9.908;2022-11-02T05:00:17;12.90;67.60
27671;DHT22;15077;49.704;9.908;2022-11-02T05:02:47;12.90;67.50
27671;DHT22;15077;49.704;9.908;2022-11-02T05:05:14;12.90;67.50
27671;DHT22;15077;49.704;9.908;2022-11-02T05:07:40;12.90;67.40
27671;DHT22;15077;49.704;9.908;2022-11-02T05:10:07;12.90;67.40
27671;DHT22;15077;49.704;9.908;2022-11-02T05:12:33;12.90;67.30
27671;DHT22;15077;49.704;9.908;2022-11-02T05:14:58;13.00;67.40
27671;DHT22;15077;49.704;9.908;2022-11-02T05:17:24;13.00;67.40
27671;DHT22;15077;49.704;9.908;2022-11-02T05:19:49;12.90;67.40
27671;DHT22;15077;49.704;9.908;2022-11-02T05:22:15;12.90;67.60
27671;DHT22;15077;49.704;9.908;2022-11-02T05:24:41;12.90;67.80
27671;DHT22;15077;49.704;9.908;2022-11-02T05:27:08;12.90;68.10
27671;DHT22;15077;49.704;9.908;2022-11-02T05:29:34;12.80;67.90
27671;DHT22;15077;49.704;9.908;2022-11-02T05:32:00;12.80;67.90
27671;DHT22;15077;49.704;9.908;2022-11-02T05:34:25;12.80;67.80
27671;DHT22;15077;49.704;9.908;2022-11-02T05:36:51;12.80;67.80
27671;DHT22;15077;49.704;9.908;2022-11-02T05:39:16;12.80;67.80
27671;DHT22;15077;49.704;9.908;2022-11-02T05:41:42;12.90;67.90
27671;DHT22;15077;49.704;9.908;2022-11-02T05:44:08;12.90;67.90
27671;DHT22;15077;49.704;9.908;2022-11-02T05:46:33;12.90;68.00
27671;DHT22;15077;49.704;9.908;2022-11-02T05:48:59;12.90;67.90
27671;DHT22;15077;49.704;9.908;2022-11-02T05:51:24;12.90;68.10
27671;DHT22;15077;49.704;9.908;2022-11-02T05:53:50;12.90;67.90
27671;DHT22;15077;49.704;9.908;2022-11-02T05:56:16;12.90;67.90
27671;DHT22;15077;49.704;9.908;2022-11-02T05:58:41;13.00;68.00
27671;DHT22;15077;49.704;9.908;2022-11-02T06:01:07;13.00;68.00
27671;DHT22;15077;49.704;9.908;2022-11-02T06:03:34;13.00;68.10
27671;DHT22;15077;49.704;9.908;2022-11-02T06:06:04;13.00;68.30
27671;DHT22;15077;49.704;9.908;2022-11-02T06:08:32;13.00;68.30
27671;DHT22;15077;49.704;9.908;2022-11-02T06:11:03;13.00;68.40
27671;DHT22;15077;49.704;9.908;2022-11-02T06:13:29;12.90;68.50
27671;DHT22;15077;49.704;9.908;2022-11-02T06:15:57;13.00;68.70
27671;DHT22;15077;49.704;9.908;2022-11-02T06:18:24;12.90;68.80
27671;DHT22;15077;49.704;9.908;2022-11-02T06:20:49;13.00;68.80
27671;DHT22;15077;49.704;9.908;2022-11-02T06:23:15;13.00;68.70
27671;DHT22;15077;49.704;9.908;2022-11-02T06:25:42;13.00;68.70
27671;DHT22;15077;49.704;9.908;2022-11-02T06:28:14;13.00;68.70
27671;DHT22;15077;49.704;9.908;2022-11-02T06:30:41;13.00;68.70
27671;DHT22;15077;49.704;9.908;2022-11-02T06:33:07;13.10;68.80
27671;DHT22;15077;49.704;9.908;2022-11-02T06:35:32;13.10;68.80
27671;DHT22;15077;49.704;9.908;2022-11-02T06:37:58;13.10;68.70
27671;DHT22;15077;49.704;9.908;2022-11-02T06:40:23;13.10;68.70
27671;DHT22;15077;49.704;9.908;2022-11-02T06:42:53;13.10;68.70
27671;DHT22;15077;49.704;9.908;2022-11-02T06:45:22;13.20;68.60
27671;DHT22;15077;49.704;9.908;2022-11-02T06:47:49;13.20;68.60
27671;DHT22;15077;49.704;9.908;2022-11-02T06:50:15;13.20;68.60
27671;DHT22;15077;49.704;9.908;2022-11-02T06:52:41;13.20;68.60
27671;DHT22;15077;49.704;9.908;2022-11-02T06:55:08;13.30;68.60
27671;DHT22;15077;49.704;9.908;2022-11-02T06:57:35;13.30;68.70
27671;DHT22;15077;49.704;9.908;2022-11-02T07:00:02;13.30;68.90
27671;DHT22;15077;49.704;9.908;2022-11-02T07:02:32;13.30;69.10
27671;DHT22;15077;49.704;9.908;2022-11-02T07:04:58;13.40;69.10
27671;DHT22;15077;49.704;9.908;2022-11-02T07:07:24;13.40;69.10
27671;DHT22;15077;49.704;9.908;2022-11-02T07:09:50;13.40;69.10
27671;DHT22;15077;49.704;9.908;2022-11-02T07:12:15;13.40;69.10
27671;DHT22;15077;49.704;9.908;2022-11-02T07:14:42;13.50;69.20
27671;DHT22;15077;49.704;9.908;2022-11-02T07:17:08;13.50;69.20
27671;DHT22;15077;49.704;9.908;2022-11-02T07:19:34;13.60;69.30
27671;DHT22;15077;49.704;9.908;2022-11-02T07:22:00;13.60;69.20
27671;DHT22;15077;49.704;9.908;2022-11-02T07:24:26;13.60;69.10
27671;DHT22;15077;49.704;9.908;2022-11-02T07:26:51;13.70;69.20
27671;DHT22;15077;49.704;9.908;2022-11-02T07:29:20;13.70;69.20
27671;DHT22;15077;49.704;9.908;2022-11-02T07:31:46;13.70;69.40
27671;DHT22;15077;49.704;9.908;2022-11-02T07:34:12;13.80;69.40
27671;DHT22;15077;49.704;9.908;2022-11-02T07:36:38;13.80;69.40
27671;DHT22;15077;49.704;9.908;2022-11-02T07:39:04;13.80;69.20
27671;DHT22;15077;49.704;9.908;2022-11-02T07:41:30;13.90;69.50
27671;DHT22;15077;49.704;9.908;2022-11-02T07:43:55;13.90;69.30
27671;DHT22;15077;49.704;9.908;2022-11-02T07:46:21;13.90;69.30
27671;DHT22;15077;49.704;9.908;2022-11-02T07:48:47;14.00;69.40
27671;DHT22;15077;49.704;9.908;2022-11-02T07:51:12;14.00;69.50
27671;DHT22;15077;49.704;9.908;2022-11-02T07:53:38;14.10;69.40
27671;DHT22;15077;49.704;9.908;2022-11-02T07:56:04;14.10;69.40
27671;DHT22;15077;49.704;9.908;2022-11-02T07:58:30;14.10;69.40
27671;DHT22;15077;49.704;9.908;2022-11-02T08:01:00;14.10;69.40
27671;DHT22;15077;49.704;9.908;2022-11-02T08:03:26;14.20;69.50
27671;DHT22;15077;49.704;9.908;2022-11-02T08:05:53;14.20;69.70
27671;DHT22;15077;49.704;9.908;2022-11-02T08:08:22;14.20;69.60
27671;DHT22;15077;49.704;9.908;2022-11-02T08:11:07;14.30;69.60
27671;DHT22;15077;49.704;9.908;2022-11-02T08:13:34;14.30;69.70
27671;DHT22;15077;49.704;9.908;2022-11-02T08:16:01;14.30;69.60
27671;DHT22;15077;49.704;9.908;2022-11-02T08:18:27;14.30;69.50
27671;DHT22;15077;49.704;9.908;2022-11-02T08:20:54;14.40;69.70
27671;DHT22;15077;49.704;9.908;2022-11-02T08:23:21;14.40;69.80
27671;DHT22;15077;49.704;9.908;2022-11-02T08:25:47;14.40;69.60
27671;DHT22;15077;49.704;9.908;2022-11-02T08:28:15;14.50;69.70
27671;DHT22;15077;49.704;9.908;2022-11-02T08:30:52;14.50;69.70
27671;DHT22;15077;49.704;9.908;2022-11-02T08:33:17;14.60;69.70
27671;DHT22;15077;49.704;9.908;2022-11-02T08:35:44;14.60;69.70
27671;DHT22;15077;49.704;9.908;2022-11-02T08:38:11;14.70;69.70
27671;DHT22;15077;49.704;9.908;2022-11-02T08:40:37;14.70;69.60
27671;DHT22;15077;49.704;9.908;2022-11-02T08:43:04;14.80;69.90
27671;DHT22;15077;49.704;9.908;2022-11-02T08:45:32;14.80;69.60
27671;DHT22;15077;49.704;9.908;2022-11-02T08:48:01;14.80;69.70
27671;DHT22;15077;49.704;9.908;2022-11-02T08:50:26;14.90;69.70
27671;DHT22;15077;49.704;9.908;2022-11-02T08:52:53;14.90;69.60
27671;DHT22;15077;49.704;9.908;2022-11-02T08:55:18;15.00;69.60
27671;DHT22;15077;49.704;9.908;2022-11-02T08:57:48;15.00;69.60
27671;DHT22;15077;49.704;9.908;2022-11-02T09:00:20;15.10;69.50
27671;DHT22;15077;49.704;9.908;2022-11-02T09:03:01;15.20;69.60
27671;DHT22;15077;49.704;9.908;2022-11-02T09:05:30;15.30;69.50
27671;DHT22;15077;49.704;9.908;2022-11-02T09:07:58;15.30;69.50
27671;DHT22;15077;49.704;9.908;2022-11-02T09:10:25;15.40;69.40
27671;DHT22;15077;49.704;9.908;2022-11-02T09:12:54;15.50;69.30
27671;DHT22;15077;49.704;9.908;2022-11-02T09:15:20;15.60;69.30
27671;DHT22;15077;49.704;9.908;2022-11-02T09:17:47;15.70;69.20
27671;DHT22;15077;49.704;9.908;2022-11-02T09:20:13;15.70;68.60
27671;DHT22;15077;49.704;9.908;2022-11-02T09:22:40;15.80;68.50
27671;DHT22;15077;49.704;9.908;2022-11-02T09:25:06;15.90;68.30
27671;DHT22;15077;49.704;9.908;2022-11-02T09:27:32;15.90;68.20
27671;DHT22;15077;49.704;9.908;2022-11-02T09:29:58;16.00;67.80
27671;DHT22;15077;49.704;9.908;2022-11-02T09:32:23;16.00;67.90
27671;DHT22;15077;49.704;9.908;2022-11-02T09:34:49;16.10;67.60
27671;DHT22;15077;49.704;9.908;2022-11-02T09:37:16;16.10;67.40
27671;DHT22;15077;49.704;9.908;2022-11-02T09:39:42;16.20;67.60
27671;DHT22;15077;49.704;9.908;2022-11-02T09:42:13;16.20;67.60
27671;DHT22;15077;49.704;9.908;2022-11-02T09:45:04;16.30;67.70
27671;DHT22;15077;49.704;9.908;2022-11-02T09:47:42;16.40;67.10
27671;DHT22;15077;49.704;9.908;2022-11-02T09:50:17;16.50;67.20
27671;DHT22;15077;49.704;9.908;2022-11-02T09:52:46;16.60;66.90
27671;DHT22;15077;49.704;9.908;2022-11-02T09:55:18;16.60;66.80
27671;DHT22;15077;49.704;9.908;2022-11-02T09:57:49;16.70;66.50
27671;DHT22;15077;49.704;9.908;2022-11-02T10:00:23;16.70;66.60
27671;DHT22;15077;49.704;9.908;2022-11-02T10:18:49;17.80;66.50
27671;DHT22;15077;49.704;9.908;2022-11-02T10:21:25;18.00;65.30
27671;DHT22;15077;49.704;9.908;2022-11-02T10:23:54;18.20;65.10
27671;DHT22;15077;49.704;9.908;2022-11-02T10:26:23;18.40;64.70
27671;DHT22;15077;49.704;9.908;2022-11-02T10:29:00;18.50;64.90
27671;DHT22;15077;49.704;9.908;2022-11-02T10:31:31;18.70;64.80
27671;DHT22;15077;49.704;9.908;2022-11-02T10:33:59;18.90;64.30
27671;DHT22;15077;49.704;9.908;2022-11-02T10:36:50;19.10;63.80
27671;DHT22;15077;49.704;9.908;2022-11-02T10:47:26;19.80;62.50
27671;DHT22;15077;49.704;9.908;2022-11-02T10:50:12;20.00;60.00
27671;DHT22;15077;49.704;9.908;2022-11-02T10:52:42;20.10;60.40
27671;DHT22;15077;49.704;9.908;2022-11-02T10:55:13;20.10;60.80
27671;DHT22;15077;49.704;9.908;2022-11-02T10:57:45;20.00;59.90
27671;DHT22;15077;49.704;9.908;2022-11-02T11:13:51;20.10;59.90
27671;DHT22;15077;49.704;9.908;2022-11-02T11:19:39;20.20;58.10
27671;DHT22;15077;49.704;9.908;2022-11-02T11:27:48;20.10;58.30
27671;DHT22;15077;49.704;9.908;2022-11-02T11:30:25;20.00;58.20
27671;DHT22;15077;49.704;9.908;2022-11-02T11:33:00;20.10;58.60
27671;DHT22;15077;49.704;9.908;2022-11-02T11:35:37;20.10;58.60
27671;DHT22;15077;49.704;9.908;2022-11-02T11:38:07;20.20;58.70
27671;DHT22;15077;49.704;9.908;2022-11-02T11:40:38;20.30;58.40
27671;DHT22;15077;49.704;9.908;2022-11-02T11:43:10;20.50;58.30
27671;DHT22;15077;49.704;9.908;2022-11-02T11:45:39;20.60;57.70
27671;DHT22;15077;49.704;9.908;2022-11-02T11:49:04;20.60;57.20
27671;DHT22;15077;49.704;9.908;2022-11-02T11:51:29;20.70;57.40
27671;DHT22;15077;49.704;9.908;2022-11-02T11:56:49;20.90;56.80
27671;DHT22;15077;49.704;9.908;2022-11-02T11:59:26;20.90;56.00
27671;DHT22;15077;49.704;9.908;2022-11-02T12:02:19;21.00;56.60
27671;DHT22;15077;49.704;9.908;2022-11-02T12:04:48;21.00;56.40
27671;DHT22;15077;49.704;9.908;2022-11-02T12:12:37;21.10;55.70
27671;DHT22;15077;49.704;9.908;2022-11-02T12:43:38;21.80;54.80
27671;DHT22;15077;49.704;9.908;2022-11-02T12:54:47;22.10;54.00
27671;DHT22;15077;49.704;9.908;2022-11-02T12:57:20;22.00;52.90
27671;DHT22;15077;49.704;9.908;2022-11-02T12:59:52;22.00;53.00
27671;DHT22;15077;49.704;9.908;2022-11-02T13:02:27;21.90;52.00
27671;DHT22;15077;49.704;9.908;2022-11-02T13:05:11;21.80;47.90
27671;DHT22;15077;49.704;9.908;2022-11-02T13:07:46;21.70;50.30
27671;DHT22;15077;49.704;9.908;2022-11-02T13:10:18;21.60;50.70
27671;DHT22;15077;49.704;9.908;2022-11-02T13:12:47;21.50;52.00
27671;DHT22;15077;49.704;9.908;2022-11-02T13:15:18;21.40;51.70
27671;DHT22;15077;49.704;9.908;2022-11-02T13:17:51;21.30;51.10
27671;DHT22;15077;49.704;9.908;2022-11-02T13:20:41;21.20;51.60
27671;DHT22;15077;49.704;9.908;2022-11-02T13:26:06;21.00;50.90
27671;DHT22;15077;49.704;9.908;2022-11-02T13:28:41;20.90;48.50
27671;DHT22;15077;49.704;9.908;2022-11-02T13:31:11;20.80;50.70
27671;DHT22;15077;49.704;9.908;2022-11-02T13:33:45;20.70;50.00
27671;DHT22;15077;49.704;9.908;2022-11-02T13:36:13;20.60;49.80
27671;DHT22;15077;49.704;9.908;2022-11-02T13:38:45;20.60;50.00
27671;DHT22;15077;49.704;9.908;2022-11-02T13:49:47;20.20;50.60
27671;DHT22;15077;49.704;9.908;2022-11-02T13:52:38;20.10;51.40
27671;DHT22;15077;49.704;9.908;2022-11-02T13:55:17;20.00;50.40
27671;DHT22;15077;49.704;9.908;2022-11-02T13:57:56;19.90;51.50
27671;DHT22;15077;49.704;9.908;2022-11-02T14:00:28;19.90;51.40
27671;DHT22;15077;49.704;9.908;2022-11-02T14:03:05;19.90;51.50
27671;DHT22;15077;49.704;9.908;2022-11-02T14:05:42;19.80;52.00
27671;DHT22;15077;49.704;9.908;2022-11-02T14:08:20;19.80;51.50
27671;DHT22;15077;49.704;9.908;2022-11-02T14:11:04;19.80;52.00
27671;DHT22;15077;49.704;9.908;2022-11-02T14:32:54;19.50;51.40
27671;DHT22;15077;49.704;9.908;2022-11-02T14:36:09;19.50;51.80
27671;DHT22;15077;49.704;9.908;2022-11-02T14:38:18;19.40;52.00
27671;DHT22;15077;49.704;9.908;2022-11-02T14:49:23;19.00;53.20
27671;DHT22;15077;49.704;9.908;2022-11-02T14:51:56;19.00;53.30
27671;DHT22;15077;49.704;9.908;2022-11-02T14:54:47;19.00;53.60
27671;DHT22;15077;49.704;9.908;2022-11-02T15:02:45;18.90;53.50
27671;DHT22;15077;49.704;9.908;2022-11-02T15:07:55;18.90;53.70
27671;DHT22;15077;49.704;9.908;2022-11-02T15:16:13;18.80;53.90
27671;DHT22;15077;49.704;9.908;2022-11-02T15:18:36;18.70;54.00
27671;DHT22;15077;49.704;9.908;2022-11-02T15:21:25;18.70;54.00
27671;DHT22;15077;49.704;9.908;2022-11-02T15:26:44;18.60;54.20
27671;DHT22;15077;49.704;9.908;2022-11-02T15:29:29;18.50;54.30
27671;DHT22;15077;49.704;9.908;2022-11-02T15:31:58;18.50;54.40
27671;DHT22;15077;49.704;9.908;2022-11-02T15:34:32;18.40;54.60
27671;DHT22;15077;49.704;9.908;2022-11-02T15:37:00;18.30;54.70
27671;DHT22;15077;49.704;9.908;2022-11-02T15:39:26;18.20;54.80
27671;DHT22;15077;49.704;9.908;2022-11-02T15:42:02;18.20;54.90
27671;DHT22;15077;49.704;9.908;2022-11-02T15:44:43;18.10;55.10
27671;DHT22;15077;49.704;9.908;2022-11-02T15:47:18;18.00;55.10
27671;DHT22;15077;49.704;9.908;2022-11-02T15:52:55;17.90;55.30
27671;DHT22;15077;49.704;9.908;2022-11-02T15:55:37;17.80;55.30
27671;DHT22;15077;49.704;9.908;2022-11-02T16:01:24;17.70;55.50
27671;DHT22;15077;49.704;9.908;2022-11-02T16:03:55;17.60;55.50
27671;DHT22;15077;49.704;9.908;2022-11-02T16:06:25;17.50;55.60
27671;DHT22;15077;49.704;9.908;2022-11-02T16:08:57;17.50;55.60
27671;DHT22;15077;49.704;9.908;2022-11-02T16:11:28;17.40;55.70
27671;DHT22;15077;49.704;9.908;2022-11-02T16:14:12;17.40;55.80
27671;DHT22;15077;49.704;9.908;2022-11-02T16:16:44;17.30;55.70
27671;DHT22;15077;49.704;9.908;2022-11-02T16:19:16;17.30;55.70
27671;DHT22;15077;49.704;9.908;2022-11-02T16:21:46;17.20;55.70
27671;DHT22;15077;49.704;9.908;2022-11-02T16:24:13;17.20;55.70
27671;DHT22;15077;49.704;9.908;2022-11-02T16:26:40;17.20;55.70
27671;DHT22;15077;49.704;9.908;2022-11-02T16:29:07;17.10;55.80
27671;DHT22;15077;49.704;9.908;2022-11-02T16:31:33;17.10;55.70
27671;DHT22;15077;49.704;9.908;2022-11-02T16:34:04;17.00;55.60
27671;DHT22;15077;49.704;9.908;2022-11-02T16:36:40;17.00;55.70
27671;DHT22;15077;49.704;9.908;2022-11-02T16:39:08;16.90;55.70
27671;DHT22;15077;49.704;9.908;2022-11-02T16:41:38;16.80;55.70
27671;DHT22;15077;49.704;9.908;2022-11-02T16:44:14;16.70;55.70
27671;DHT22;15077;49.704;9.908;2022-11-02T16:49:31;16.50;55.80
27671;DHT22;15077;49.704;9.908;2022-11-02T16:52:21;16.40;55.90
27671;DHT22;15077;49.704;9.908;2022-11-02T16:54:50;16.30;56.00
27671;DHT22;15077;49.704;9.908;2022-11-02T16:57:17;16.20;56.20
27671;DHT22;15077;49.704;9.908;2022-11-02T16:59:53;16.10;56.30
27671;DHT22;15077;49.704;9.908;2022-11-02T17:02:35;16.10;56.50
27671;DHT22;15077;49.704;9.908;2022-11-02T17:05:03;16.00;56.50
27671;DHT22;15077;49.704;9.908;2022-11-02T17:07:30;16.00;56.50
27671;DHT22;15077;49.704;9.908;2022-11-02T17:09:59;16.00;56.50
27671;DHT22;15077;49.704;9.908;2022-11-02T17:12:31;16.00;56.40
27671;DHT22;15077;49.704;9.908;2022-11-02T17:15:00;16.00;56.50
27671;DHT22;15077;49.704;9.908;2022-11-02T17:17:29;15.90;56.50
27671;DHT22;15077;49.704;9.908;2022-11-02T17:20:04;15.90;56.50
27671;DHT22;15077;49.704;9.908;2022-11-02T17:27:47;15.70;56.50
27671;DHT22;15077;49.704;9.908;2022-11-02T17:30:48;15.60;56.60
27671;DHT22;15077;49.704;9.908;2022-11-02T17:35:52;15.60;56.70
27671;DHT22;15077;49.704;9.908;2022-11-02T17:38:21;15.50;56.80
27671;DHT22;15077;49.704;9.908;2022-11-02T17:40:49;15.50;56.80
27671;DHT22;15077;49.704;9.908;2022-11-02T17:43:19;15.50;56.80
27671;DHT22;15077;49.704;9.908;2022-11-02T17:45:56;15.40;56.80
27671;DHT22;15077;49.704;9.908;2022-11-02T17:48:23;15.40;56.90
27671;DHT22;15077;49.704;9.908;2022-11-02T17:50:52;15.40;56.80
27671;DHT22;15077;49.704;9.908;2022-11-02T17:53:20;15.40;56.90
27671;DHT22;15077;49.704;9.908;2022-11-02T17:55:46;15.30;56.90
27671;DHT22;15077;49.704;9.908;2022-11-02T17:58:12;15.30;57.00
27671;DHT22;15077;49.704;9.908;2022-11-02T18:00:38;15.30;57.00
27671;DHT22;15077;49.704;9.908;2022-11-02T18:03:04;15.20;57.00
27671;DHT22;15077;49.704;9.908;2022-11-02T18:05:38;15.20;57.00
27671;DHT22;15077;49.704;9.908;2022-11-02T18:08:04;15.20;57.00
27671;DHT22;15077;49.704;9.908;2022-11-02T18:10:31;15.10;57.00
27671;DHT22;15077;49.704;9.908;2022-11-02T18:12:58;15.10;57.30
27671;DHT22;15077;49.704;9.908;2022-11-02T18:15:25;15.00;57.10
27671;DHT22;15077;49.704;9.908;2022-11-02T18:17:52;15.00;57.20
27671;DHT22;15077;49.704;9.908;2022-11-02T18:20:21;14.90;57.20
27671;DHT22;15077;49.704;9.908;2022-11-02T18:22:48;14.90;57.20
27671;DHT22;15077;49.704;9.908;2022-11-02T18:25:15;14.90;57.20
27671;DHT22;15077;49.704;9.908;2022-11-02T18:27:42;14.80;57.20
27671;DHT22;15077;49.704;9.908;2022-11-02T18:30:12;14.80;57.30
27671;DHT22;15077;49.704;9.908;2022-11-02T18:32:41;14.70;57.30
27671;DHT22;15077;49.704;9.908;2022-11-02T18:35:09;14.70;57.30
27671;DHT22;15077;49.704;9.908;2022-11-02T18:37:36;14.60;57.30
27671;DHT22;15077;49.704;9.908;2022-11-02T18:40:06;14.60;57.30
27671;DHT22;15077;49.704;9.908;2022-11-02T18:42:40;14.60;57.40
27671;DHT22;15077;49.704;9.908;2022-11-02T18:45:07;14.50;57.40
27671;DHT22;15077;49.704;9.908;2022-11-02T18:47:34;14.50;57.50
27671;DHT22;15077;49.704;9.908;2022-11-02T18:50:00;14.40;57.50
27671;DHT22;15077;49.704;9.908;2022-11-02T18:52:26;14.40;57.50
27671;DHT22;15077;49.704;9.908;2022-11-02T18:54:54;14.40;57.60
27671;DHT22;15077;49.704;9.908;2022-11-02T18:57:20;14.30;57.60
27671;DHT22;15077;49.704;9.908;2022-11-02T18:59:46;14.30;57.60